KHIO/HIO METAR and TAF weather

Enter ICAO airport designator
Station Type Date Time Source
KHIO METAR 2022/12/10 00:53 UTC NOAA

KHIO 100053Z 10007KT 5SM RA BR BKN016 OVC026 06/05 A2958 RMK AO2 SLP017 P0009 T00560050


Station Type Date Time Source
KHIO Decoded METAR 2022/12/10 00:53 UTC NOAA

PORTLAND-HILLSBORO AIRPORT, OR, United States (KHIO) 45-33N 122-57W 68M
Dec 09, 2022 - 07:53 PM EST / 2022.12.10 0053 UTC
Wind: from the E (100 degrees) at 8 MPH (7 KT):0
Visibility: 5 mile(s):0
Sky conditions: overcast
Weather: rain; mist
Precipitation last hour: 0.09 inches
Temperature: 42.1 F (5.6 C)
Dew Point: 41.0 F (5.0 C)
Relative Humidity: 95%
Pressure (altimeter): 29.58 in. Hg (1001 hPa)
ob: KHIO 100053Z 10007KT 5SM RA BR BKN016 OVC026 06/05 A2958 RMK AO2 SLP017 P0009 T00560050
cycle: 1

Station Type Date Time Source
KHIO TAF 2022/12/09 18:27 UTC NOAA

TAF KHIO 091723Z 0918/1018 16009KT P6SM RA OVC012
FM092200 13011KT 3SM RA BR OVC012
FM100600 15010G22KT 6SM RA BR OVC019 WS020/19050KT
FM101200 17014G27KT 4SM RA BR OVC017 WS020/19045KT
FM101700 17011G20KT 5SM RA BR OVC024

Example: see airport list